Check out our new PWSWeather beta!
PWSweather.com
Personal Weather Stations
Station Observations
SEVANL01
SevillaES 41004

SevillaES 41004

Lat: 37.383633, Lon: -5.985787

Elevation: 19.685

Station Type: Davis Vantage Pro2

www.tiempoensevilla.es

High Low Average
Temperature 65.9°F18.8°C 53.2°F11.8°C 58.4°F14.7°C
Dew Point 47.1°F8.4°C 34.7°F1.5°C 40.9°F4.9°C
Winds 9.0 mph 14.5 kmh 1.0 mph 1.6 kmh 4.0 mph WNW6.4 kmh WNW
Wind Gusts 18.0 mph29.0 kmh 3.0 mph4.8 kmh 9.0 mph14.5 kmh
Humidity 78% 32% 55%
Pressure 30.20 in1022.7 mb 30.02 in1016.6 mb -
Precipitation 0.00 in0.0 mm - -
Hour Temp Dew Point Humidity Winds Wind Gusts Pressure Precip Precip Rate Daily Precip Total
12:00 AM 58.2°F14.6°C 43.0°F6.1°C 57% 2.0 mph W3.2 kmh W 6.0 mph9.7 kmh 30.04 in1017.3 mb 0.00 in0.0 mm 0.00 in0.0 mm 0.00 in0.0 mm
12:20 AM 58.1°F14.5°C 43.4°F6.3°C 58% 2.0 mph WNW3.2 kmh WNW 6.0 mph9.7 kmh 30.04 in1017.3 mb 0.00 in0.0 mm 0.00 in0.0 mm 0.00 in0.0 mm
12:40 AM 57.9°F14.4°C 43.2°F6.2°C 58% 2.5 mph W4.0 kmh W 8.0 mph12.9 kmh 30.03 in1016.9 mb 0.00 in0.0 mm 0.00 in0.0 mm 0.00 in0.0 mm
01:00 AM 57.7°F14.3°C 43.9°F6.6°C 60% 2.0 mph WNW3.2 kmh WNW 5.0 mph8.0 kmh 30.03 in1016.9 mb 0.00 in0.0 mm 0.00 in0.0 mm 0.00 in0.0 mm
01:20 AM 56.7°F13.7°C 43.8°F6.6°C 62% 2.0 mph W3.2 kmh W 4.0 mph6.4 kmh 30.04 in1017.3 mb 0.00 in0.0 mm 0.00 in0.0 mm 0.00 in0.0 mm
01:40 AM 55.5°F13.1°C 43.1°F6.2°C 63% 2.4 mph WSW3.9 kmh WSW 8.0 mph12.9 kmh 30.03 in1016.9 mb 0.00 in0.0 mm 0.00 in0.0 mm 0.00 in0.0 mm
02:00 AM 55.2°F12.9°C 43.2°F6.2°C 64% 2.0 mph WSW3.2 kmh WSW 4.0 mph6.4 kmh 30.03 in1016.9 mb 0.00 in0.0 mm 0.00 in0.0 mm 0.00 in0.0 mm
02:20 AM 55.0°F12.8°C 43.4°F6.3°C 65% 2.0 mph WSW3.2 kmh WSW 4.0 mph6.4 kmh 30.03 in1016.9 mb 0.00 in0.0 mm 0.00 in0.0 mm 0.00 in0.0 mm
02:40 AM 55.0°F12.8°C 44.2°F6.8°C 67% 1.1 mph WSW1.8 kmh WSW 4.0 mph6.4 kmh 30.03 in1016.9 mb 0.00 in0.0 mm 0.00 in0.0 mm 0.00 in0.0 mm
03:00 AM 54.8°F12.7°C 44.0°F6.7°C 67% 1.0 mph WSW1.6 kmh WSW 3.0 mph4.8 kmh 30.02 in1016.6 mb 0.00 in0.0 mm 0.00 in0.0 mm 0.00 in0.0 mm
03:20 AM 54.5°F12.5°C 44.2°F6.8°C 68% 1.8 mph WSW2.9 kmh WSW 6.0 mph9.7 kmh 30.03 in1016.9 mb 0.00 in0.0 mm 0.00 in0.0 mm 0.00 in0.0 mm
03:40 AM 54.3°F12.4°C 44.3°F6.8°C 69% 2.0 mph WSW3.2 kmh WSW 6.0 mph9.7 kmh 30.03 in1016.9 mb 0.00 in0.0 mm 0.00 in0.0 mm 0.00 in0.0 mm
04:00 AM 54.1°F12.3°C 44.5°F6.9°C 70% 2.6 mph WSW4.2 kmh WSW 6.0 mph9.7 kmh 30.03 in1016.9 mb 0.00 in0.0 mm 0.00 in0.0 mm 0.00 in0.0 mm
04:20 AM 53.9°F12.2°C 44.7°F7.1°C 71% 2.7 mph WSW4.3 kmh WSW 6.0 mph9.7 kmh 30.03 in1016.9 mb 0.00 in0.0 mm 0.00 in0.0 mm 0.00 in0.0 mm
04:40 AM 53.4°F11.9°C 44.6°F7.0°C 72% 2.0 mph W3.2 kmh W 5.0 mph8.0 kmh 30.04 in1017.3 mb 0.00 in0.0 mm 0.00 in0.0 mm 0.00 in0.0 mm
05:00 AM 53.4°F11.9°C 45.0°F7.2°C 73% 2.0 mph WNW3.2 kmh WNW 7.0 mph11.3 kmh 30.04 in1017.3 mb 0.00 in0.0 mm 0.00 in0.0 mm 0.00 in0.0 mm
05:20 AM 53.8°F12.1°C 45.0°F7.2°C 72% 1.6 mph NW2.6 kmh NW 5.0 mph8.0 kmh 30.05 in1017.6 mb 0.00 in0.0 mm 0.00 in0.0 mm 0.00 in0.0 mm
05:40 AM 54.0°F12.2°C 45.2°F7.3°C 72% 2.6 mph W4.2 kmh W 7.0 mph11.3 kmh 30.04 in1017.3 mb 0.00 in0.0 mm 0.00 in0.0 mm 0.00 in0.0 mm
06:00 AM 54.1°F12.3°C 45.6°F7.6°C 73% 2.4 mph W3.9 kmh W 7.0 mph11.3 kmh 30.04 in1017.3 mb 0.00 in0.0 mm 0.00 in0.0 mm 0.00 in0.0 mm
06:20 AM 54.0°F12.2°C 45.9°F7.7°C 74% 3.0 mph W4.8 kmh W 9.0 mph14.5 kmh 30.05 in1017.6 mb 0.00 in0.0 mm 0.00 in0.0 mm 0.00 in0.0 mm
06:40 AM 53.9°F12.2°C 45.8°F7.7°C 74% 2.1 mph W3.4 kmh W 7.0 mph11.3 kmh 30.05 in1017.6 mb 0.00 in0.0 mm 0.00 in0.0 mm 0.00 in0.0 mm
07:00 AM 53.2°F11.8°C 45.8°F7.7°C 76% 5.0 mph WSW8.0 kmh WSW 9.0 mph14.5 kmh 30.05 in1017.6 mb 0.00 in0.0 mm 0.00 in0.0 mm 0.00 in0.0 mm
07:20 AM 53.4°F11.9°C 46.0°F7.8°C 76% 4.1 mph W6.6 kmh W 10.0 mph16.1 kmh 30.05 in1017.6 mb 0.00 in0.0 mm 0.00 in0.0 mm 0.00 in0.0 mm
07:40 AM 53.5°F11.9°C 46.1°F7.8°C 76% 3.6 mph W5.8 kmh W 9.0 mph14.5 kmh 30.07 in1018.3 mb 0.00 in0.0 mm 0.00 in0.0 mm 0.00 in0.0 mm
08:00 AM 53.3°F11.8°C 46.6°F8.1°C 78% 4.0 mph WNW6.4 kmh WNW 13.0 mph20.9 kmh 30.08 in1018.6 mb 0.00 in0.0 mm 0.00 in0.0 mm 0.00 in0.0 mm
08:20 AM 53.2°F11.8°C 46.5°F8.1°C 78% 3.4 mph W5.5 kmh W 11.0 mph17.7 kmh 30.08 in1018.6 mb 0.00 in0.0 mm 0.00 in0.0 mm 0.00 in0.0 mm
08:40 AM 53.5°F11.9°C 46.8°F8.2°C 78% 4.9 mph WNW7.9 kmh WNW 12.0 mph19.3 kmh 30.09 in1019.0 mb 0.00 in0.0 mm 0.00 in0.0 mm 0.00 in0.0 mm
09:00 AM 53.5°F11.9°C 46.8°F8.2°C 78% 4.2 mph WNW6.8 kmh WNW 10.0 mph16.1 kmh 30.10 in1019.3 mb 0.00 in0.0 mm 0.00 in0.0 mm 0.00 in0.0 mm
09:20 AM 53.8°F12.1°C 46.8°F8.2°C 77% 3.9 mph W6.3 kmh W 8.0 mph12.9 kmh 30.11 in1019.6 mb 0.00 in0.0 mm 0.00 in0.0 mm 0.00 in0.0 mm
09:40 AM 54.4°F12.4°C 47.0°F8.3°C 76% 4.5 mph W7.2 kmh W 11.0 mph17.7 kmh 30.11 in1019.6 mb 0.00 in0.0 mm 0.00 in0.0 mm 0.00 in0.0 mm
10:00 AM 55.2°F12.9°C 47.1°F8.4°C 74% 5.0 mph W8.0 kmh W 12.0 mph19.3 kmh 30.12 in1020.0 mb 0.00 in0.0 mm 0.00 in0.0 mm 0.00 in0.0 mm
10:20 AM 55.9°F13.3°C 47.0°F8.3°C 72% 4.8 mph WNW7.7 kmh WNW 13.0 mph20.9 kmh 30.12 in1020.0 mb 0.00 in0.0 mm 0.00 in0.0 mm 0.00 in0.0 mm
10:40 AM 57.1°F13.9°C 46.6°F8.1°C 68% 4.8 mph WNW7.7 kmh WNW 10.0 mph16.1 kmh 30.12 in1020.0 mb 0.00 in0.0 mm 0.00 in0.0 mm 0.00 in0.0 mm
11:00 AM 57.7°F14.3°C 44.8°F7.1°C 62% 4.6 mph WNW7.4 kmh WNW 14.0 mph22.5 kmh 30.12 in1020.0 mb 0.00 in0.0 mm 0.00 in0.0 mm 0.00 in0.0 mm
11:20 AM 58.3°F14.6°C 45.3°F7.4°C 62% 4.7 mph WNW7.6 kmh WNW 11.0 mph17.7 kmh 30.12 in1020.0 mb 0.00 in0.0 mm 0.00 in0.0 mm 0.00 in0.0 mm
11:40 AM 59.7°F15.4°C 40.5°F4.7°C 49% 3.9 mph NW6.3 kmh NW 15.0 mph24.1 kmh 30.12 in1020.0 mb 0.00 in0.0 mm 0.00 in0.0 mm 0.00 in0.0 mm
12:00 PM 60.2°F15.7°C 41.0°F5.0°C 49% 9.0 mph NW14.5 kmh NW 18.0 mph29.0 kmh 30.11 in1019.6 mb 0.00 in0.0 mm 0.00 in0.0 mm 0.00 in0.0 mm
12:20 PM 60.7°F15.9°C 39.8°F4.3°C 46% 5.8 mph NW9.3 kmh NW 16.0 mph25.7 kmh 30.11 in1019.6 mb 0.00 in0.0 mm 0.00 in0.0 mm 0.00 in0.0 mm
12:40 PM 61.7°F16.5°C 39.6°F4.2°C 44% 6.4 mph NNW10.3 kmh NNW 15.0 mph24.1 kmh 30.11 in1019.6 mb 0.00 in0.0 mm 0.00 in0.0 mm 0.00 in0.0 mm
01:00 PM 61.3°F16.3°C 38.6°F3.7°C 43% 8.9 mph NW14.3 kmh NW 17.0 mph27.4 kmh 30.11 in1019.6 mb 0.00 in0.0 mm 0.00 in0.0 mm 0.00 in0.0 mm
01:20 PM 62.3°F16.8°C 38.3°F3.5°C 41% 6.1 mph N9.8 kmh N 11.0 mph17.7 kmh 30.09 in1019.0 mb 0.00 in0.0 mm 0.00 in0.0 mm 0.00 in0.0 mm
01:40 PM 62.5°F16.9°C 36.5°F2.5°C 38% 7.7 mph NNW12.4 kmh NNW 15.0 mph24.1 kmh 30.09 in1019.0 mb 0.00 in0.0 mm 0.00 in0.0 mm 0.00 in0.0 mm
02:00 PM 62.9°F17.2°C 36.9°F2.7°C 38% 5.5 mph NNW8.9 kmh NNW 12.0 mph19.3 kmh 30.09 in1019.0 mb 0.00 in0.0 mm 0.00 in0.0 mm 0.00 in0.0 mm
02:20 PM 63.6°F17.6°C 36.8°F2.7°C 37% 5.9 mph NNW9.5 kmh NNW 14.0 mph22.5 kmh 30.08 in1018.6 mb 0.00 in0.0 mm 0.00 in0.0 mm 0.00 in0.0 mm
02:40 PM 64.1°F17.8°C 36.6°F2.6°C 36% 5.2 mph N8.4 kmh N 12.0 mph19.3 kmh 30.08 in1018.6 mb 0.00 in0.0 mm 0.00 in0.0 mm 0.00 in0.0 mm
03:00 PM 64.4°F18.0°C 36.1°F2.3°C 35% 5.1 mph NW8.2 kmh NW 9.0 mph14.5 kmh 30.08 in1018.6 mb 0.00 in0.0 mm 0.00 in0.0 mm 0.00 in0.0 mm
03:20 PM 64.6°F18.1°C 35.6°F2.0°C 34% 4.6 mph NW7.4 kmh NW 13.0 mph20.9 kmh 30.08 in1018.6 mb 0.00 in0.0 mm 0.00 in0.0 mm 0.00 in0.0 mm
03:40 PM 65.1°F18.4°C 36.0°F2.2°C 34% 3.4 mph NW5.5 kmh NW 6.0 mph9.7 kmh 30.08 in1018.6 mb 0.00 in0.0 mm 0.00 in0.0 mm 0.00 in0.0 mm
04:00 PM 65.3°F18.5°C 34.7°F1.5°C 32% 3.8 mph NNW6.1 kmh NNW 11.0 mph17.7 kmh 30.08 in1018.6 mb 0.00 in0.0 mm 0.00 in0.0 mm 0.00 in0.0 mm
04:20 PM 65.9°F18.8°C 35.2°F1.8°C 32% 4.1 mph NNW6.6 kmh NNW 16.0 mph25.7 kmh 30.08 in1018.6 mb 0.00 in0.0 mm 0.00 in0.0 mm 0.00 in0.0 mm
04:40 PM 65.9°F18.8°C 35.2°F1.8°C 32% 3.5 mph NNW5.6 kmh NNW 10.0 mph16.1 kmh 30.09 in1019.0 mb 0.00 in0.0 mm 0.00 in0.0 mm 0.00 in0.0 mm
05:00 PM 65.8°F18.8°C 35.9°F2.2°C 33% 4.0 mph NW6.4 kmh NW 11.0 mph17.7 kmh 30.09 in1019.0 mb 0.00 in0.0 mm 0.00 in0.0 mm 0.00 in0.0 mm
05:20 PM 65.5°F18.6°C 34.8°F1.6°C 32% 5.0 mph NW8.0 kmh NW 12.0 mph19.3 kmh 30.09 in1019.0 mb 0.00 in0.0 mm 0.00 in0.0 mm 0.00 in0.0 mm
05:40 PM 65.6°F18.7°C 35.7°F2.1°C 33% 3.8 mph NW6.1 kmh NW 5.0 mph8.0 kmh 30.10 in1019.3 mb 0.00 in0.0 mm 0.00 in0.0 mm 0.00 in0.0 mm
06:00 PM 64.6°F18.1°C 34.8°F1.6°C 33% 3.9 mph NW6.3 kmh NW 9.0 mph14.5 kmh 30.11 in1019.6 mb 0.00 in0.0 mm 0.00 in0.0 mm 0.00 in0.0 mm
06:20 PM 64.2°F17.9°C 35.2°F1.8°C 34% 3.3 mph NW5.3 kmh NW 11.0 mph17.7 kmh 30.11 in1019.6 mb 0.00 in0.0 mm 0.00 in0.0 mm 0.00 in0.0 mm
06:40 PM 63.5°F17.5°C 36.0°F2.2°C 36% 3.2 mph NW5.1 kmh NW 8.0 mph12.9 kmh 30.12 in1020.0 mb 0.00 in0.0 mm 0.00 in0.0 mm 0.00 in0.0 mm
07:00 PM 62.8°F17.1°C 36.1°F2.3°C 37% 4.0 mph NW6.4 kmh NW 8.0 mph12.9 kmh 30.13 in1020.3 mb 0.00 in0.0 mm 0.00 in0.0 mm 0.00 in0.0 mm
07:20 PM 62.0°F16.7°C 36.1°F2.3°C 38% 3.6 mph NW5.8 kmh NW 8.0 mph12.9 kmh 30.14 in1020.7 mb 0.00 in0.0 mm 0.00 in0.0 mm 0.00 in0.0 mm
07:40 PM 61.4°F16.3°C 36.2°F2.3°C 39% 5.0 mph NNW8.0 kmh NNW 10.0 mph16.1 kmh 30.15 in1021.0 mb 0.00 in0.0 mm 0.00 in0.0 mm 0.00 in0.0 mm
08:00 PM 60.8°F16.0°C 36.3°F2.4°C 40% 4.0 mph NNW6.4 kmh NNW 9.0 mph14.5 kmh 30.16 in1021.3 mb 0.00 in0.0 mm 0.00 in0.0 mm 0.00 in0.0 mm
08:20 PM 59.7°F15.4°C 35.9°F2.2°C 41% 4.4 mph N7.1 kmh N 9.0 mph14.5 kmh 30.17 in1021.7 mb 0.00 in0.0 mm 0.00 in0.0 mm 0.00 in0.0 mm
08:40 PM 59.1°F15.1°C 36.6°F2.6°C 43% 4.0 mph N6.4 kmh N 8.0 mph12.9 kmh 30.17 in1021.7 mb 0.00 in0.0 mm 0.00 in0.0 mm 0.00 in0.0 mm
09:00 PM 58.4°F14.7°C 36.6°F2.6°C 44% 3.2 mph NNW5.1 kmh NNW 9.0 mph14.5 kmh 30.18 in1022.0 mb 0.00 in0.0 mm 0.00 in0.0 mm 0.00 in0.0 mm
09:20 PM 57.8°F14.3°C 36.6°F2.6°C 45% 3.7 mph NNW6.0 kmh NNW 8.0 mph12.9 kmh 30.18 in1022.0 mb 0.00 in0.0 mm 0.00 in0.0 mm 0.00 in0.0 mm
09:40 PM 57.5°F14.2°C 36.9°F2.7°C 46% 3.6 mph NNW5.8 kmh NNW 6.0 mph9.7 kmh 30.19 in1022.4 mb 0.00 in0.0 mm 0.00 in0.0 mm 0.00 in0.0 mm
10:00 PM 57.1°F13.9°C 37.6°F3.1°C 48% 4.0 mph N6.4 kmh N 8.0 mph12.9 kmh 30.19 in1022.4 mb 0.00 in0.0 mm 0.00 in0.0 mm 0.00 in0.0 mm
10:20 PM 56.9°F13.8°C 37.9°F3.3°C 49% 3.2 mph NNW5.1 kmh NNW 8.0 mph12.9 kmh 30.19 in1022.4 mb 0.00 in0.0 mm 0.00 in0.0 mm 0.00 in0.0 mm
10:40 PM 56.7°F13.7°C 37.7°F3.2°C 49% 3.7 mph NNW6.0 kmh NNW 9.0 mph14.5 kmh 30.20 in1022.7 mb 0.00 in0.0 mm 0.00 in0.0 mm 0.00 in0.0 mm
11:00 PM 56.7°F13.7°C 38.3°F3.5°C 50% 4.0 mph NNW6.4 kmh NNW 10.0 mph16.1 kmh 30.20 in1022.7 mb 0.00 in0.0 mm 0.00 in0.0 mm 0.00 in0.0 mm
11:20 PM 56.8°F13.8°C 38.3°F3.5°C 50% 5.7 mph NNW9.2 kmh NNW 11.0 mph17.7 kmh 30.20 in1022.7 mb 0.00 in0.0 mm 0.00 in0.0 mm 0.00 in0.0 mm
11:40 PM 56.1°F13.4°C 38.2°F3.4°C 51% 5.0 mph N8.0 kmh N 9.0 mph14.5 kmh 30.20 in1022.7 mb 0.00 in0.0 mm 0.00 in0.0 mm 0.00 in0.0 mm